sensor_id;sensor_type;location;lat;lon;timestamp;P1;durP1;ratioP1;P2;durP2;ratioP2
37787;SDS011;23627;53.302;-6.362;2023-07-16T00:01:53;5.43;;;1.83;;
37787;SDS011;23627;53.302;-6.362;2023-07-16T00:04:19;6.40;;;1.83;;
37787;SDS011;23627;53.302;-6.362;2023-07-16T00:06:45;6.70;;;1.80;;
37787;SDS011;23627;53.302;-6.362;2023-07-16T00:09:11;6.57;;;1.90;;
37787;SDS011;23627;53.302;-6.362;2023-07-16T00:11:37;7.68;;;2.15;;
37787;SDS011;23627;53.302;-6.362;2023-07-16T00:14:02;8.18;;;2.20;;
37787;SDS011;23627;53.302;-6.362;2023-07-16T00:16:28;10.40;;;2.53;;
37787;SDS011;23627;53.302;-6.362;2023-07-16T00:18:54;9.02;;;2.08;;
37787;SDS011;23627;53.302;-6.362;2023-07-16T00:21:20;6.63;;;1.45;;
37787;SDS011;23627;53.302;-6.362;2023-07-16T00:23:45;6.95;;;1.88;;
37787;SDS011;23627;53.302;-6.362;2023-07-16T00:26:12;6.03;;;1.58;;
37787;SDS011;23627;53.302;-6.362;2023-07-16T00:28:38;8.40;;;1.77;;
37787;SDS011;23627;53.302;-6.362;2023-07-16T00:31:04;9.05;;;1.58;;
37787;SDS011;23627;53.302;-6.362;2023-07-16T00:33:30;8.18;;;2.03;;
37787;SDS011;23627;53.302;-6.362;2023-07-16T00:35:56;6.05;;;1.85;;
37787;SDS011;23627;53.302;-6.362;2023-07-16T00:38:21;7.22;;;1.70;;
37787;SDS011;23627;53.302;-6.362;2023-07-16T00:40:47;9.30;;;1.92;;
37787;SDS011;23627;53.302;-6.362;2023-07-16T00:43:13;7.93;;;2.00;;
37787;SDS011;23627;53.302;-6.362;2023-07-16T00:45:39;7.25;;;2.15;;
37787;SDS011;23627;53.302;-6.362;2023-07-16T00:48:06;6.03;;;1.60;;
37787;SDS011;23627;53.302;-6.362;2023-07-16T00:50:36;5.88;;;1.50;;
37787;SDS011;23627;53.302;-6.362;2023-07-16T00:53:05;5.15;;;1.45;;
37787;SDS011;23627;53.302;-6.362;2023-07-16T00:55:32;6.13;;;2.05;;
37787;SDS011;23627;53.302;-6.362;2023-07-16T00:58:00;6.15;;;1.80;;
37787;SDS011;23627;53.302;-6.362;2023-07-16T01:00:38;5.60;;;1.77;;
37787;SDS011;23627;53.302;-6.362;2023-07-16T01:03:14;6.10;;;2.00;;
37787;SDS011;23627;53.302;-6.362;2023-07-16T01:05:43;5.45;;;1.67;;
37787;SDS011;23627;53.302;-6.362;2023-07-16T01:08:14;4.22;;;1.70;;
37787;SDS011;23627;53.302;-6.362;2023-07-16T01:10:46;4.65;;;1.55;;
37787;SDS011;23627;53.302;-6.362;2023-07-16T01:13:13;5.43;;;1.50;;
37787;SDS011;23627;53.302;-6.362;2023-07-16T01:15:40;7.43;;;1.70;;
37787;SDS011;23627;53.302;-6.362;2023-07-16T01:18:06;6.60;;;1.77;;
37787;SDS011;23627;53.302;-6.362;2023-07-16T01:20:31;7.20;;;1.75;;
37787;SDS011;23627;53.302;-6.362;2023-07-16T01:30:57;6.00;;;1.70;;
37787;SDS011;23627;53.302;-6.362;2023-07-16T01:33:24;4.45;;;1.40;;
37787;SDS011;23627;53.302;-6.362;2023-07-16T01:35:51;6.25;;;1.63;;
37787;SDS011;23627;53.302;-6.362;2023-07-16T01:38:17;5.00;;;1.67;;
37787;SDS011;23627;53.302;-6.362;2023-07-16T01:40:46;4.85;;;1.55;;
37787;SDS011;23627;53.302;-6.362;2023-07-16T01:43:12;4.07;;;1.38;;
37787;SDS011;23627;53.302;-6.362;2023-07-16T01:45:38;6.80;;;1.38;;
37787;SDS011;23627;53.302;-6.362;2023-07-16T01:50:32;5.75;;;1.30;;
37787;SDS011;23627;53.302;-6.362;2023-07-16T01:52:58;6.55;;;1.52;;
37787;SDS011;23627;53.302;-6.362;2023-07-16T01:55:24;3.38;;;1.30;;
37787;SDS011;23627;53.302;-6.362;2023-07-16T01:57:50;6.40;;;1.67;;
37787;SDS011;23627;53.302;-6.362;2023-07-16T02:00:16;4.20;;;1.33;;
37787;SDS011;23627;53.302;-6.362;2023-07-16T02:02:41;6.60;;;1.50;;
37787;SDS011;23627;53.302;-6.362;2023-07-16T02:05:07;5.07;;;1.35;;
37787;SDS011;23627;53.302;-6.362;2023-07-16T02:07:33;5.30;;;1.40;;
37787;SDS011;23627;53.302;-6.362;2023-07-16T02:09:59;5.28;;;1.30;;
37787;SDS011;23627;53.302;-6.362;2023-07-16T02:12:24;4.30;;;1.30;;
37787;SDS011;23627;53.302;-6.362;2023-07-16T02:14:50;5.15;;;1.40;;
37787;SDS011;23627;53.302;-6.362;2023-07-16T02:17:16;6.18;;;1.48;;
37787;SDS011;23627;53.302;-6.362;2023-07-16T02:19:41;5.88;;;1.30;;
37787;SDS011;23627;53.302;-6.362;2023-07-16T02:22:07;5.85;;;1.23;;
37787;SDS011;23627;53.302;-6.362;2023-07-16T02:24:33;5.88;;;1.40;;
37787;SDS011;23627;53.302;-6.362;2023-07-16T02:26:59;4.68;;;1.15;;
37787;SDS011;23627;53.302;-6.362;2023-07-16T02:29:24;6.28;;;1.30;;
37787;SDS011;23627;53.302;-6.362;2023-07-16T02:31:50;6.65;;;1.30;;
37787;SDS011;23627;53.302;-6.362;2023-07-16T02:34:16;4.25;;;1.27;;
37787;SDS011;23627;53.302;-6.362;2023-07-16T02:36:42;3.45;;;1.30;;
37787;SDS011;23627;53.302;-6.362;2023-07-16T02:39:08;5.55;;;1.30;;
37787;SDS011;23627;53.302;-6.362;2023-07-16T02:41:33;4.03;;;1.20;;
37787;SDS011;23627;53.302;-6.362;2023-07-16T02:44:00;5.32;;;1.10;;
37787;SDS011;23627;53.302;-6.362;2023-07-16T02:46:26;7.57;;;1.58;;
37787;SDS011;23627;53.302;-6.362;2023-07-16T02:48:52;4.75;;;1.48;;
37787;SDS011;23627;53.302;-6.362;2023-07-16T02:51:18;4.35;;;1.10;;
37787;SDS011;23627;53.302;-6.362;2023-07-16T02:53:44;4.10;;;1.27;;
37787;SDS011;23627;53.302;-6.362;2023-07-16T02:56:09;4.40;;;1.58;;
37787;SDS011;23627;53.302;-6.362;2023-07-16T02:58:35;5.45;;;1.55;;
37787;SDS011;23627;53.302;-6.362;2023-07-16T03:01:01;5.13;;;1.30;;
37787;SDS011;23627;53.302;-6.362;2023-07-16T03:03:27;4.03;;;1.15;;
37787;SDS011;23627;53.302;-6.362;2023-07-16T03:05:52;3.72;;;1.10;;
37787;SDS011;23627;53.302;-6.362;2023-07-16T03:08:18;4.32;;;1.50;;
37787;SDS011;23627;53.302;-6.362;2023-07-16T03:10:44;3.67;;;1.20;;
37787;SDS011;23627;53.302;-6.362;2023-07-16T03:13:10;4.70;;;1.20;;
37787;SDS011;23627;53.302;-6.362;2023-07-16T03:15:36;3.88;;;1.17;;
37787;SDS011;23627;53.302;-6.362;2023-07-16T03:18:02;4.68;;;1.08;;
37787;SDS011;23627;53.302;-6.362;2023-07-16T03:20:27;5.03;;;1.40;;
37787;SDS011;23627;53.302;-6.362;2023-07-16T03:22:53;3.78;;;1.20;;
37787;SDS011;23627;53.302;-6.362;2023-07-16T03:25:19;3.33;;;1.10;;
37787;SDS011;23627;53.302;-6.362;2023-07-16T03:27:45;5.82;;;1.30;;
37787;SDS011;23627;53.302;-6.362;2023-07-16T03:30:10;3.40;;;1.00;;
37787;SDS011;23627;53.302;-6.362;2023-07-16T03:32:36;3.95;;;1.10;;
37787;SDS011;23627;53.302;-6.362;2023-07-16T03:35:02;4.70;;;1.13;;
37787;SDS011;23627;53.302;-6.362;2023-07-16T03:37:28;3.35;;;1.02;;
37787;SDS011;23627;53.302;-6.362;2023-07-16T03:39:53;4.28;;;0.90;;
37787;SDS011;23627;53.302;-6.362;2023-07-16T03:42:19;4.18;;;1.20;;
37787;SDS011;23627;53.302;-6.362;2023-07-16T03:44:47;2.35;;;1.15;;
37787;SDS011;23627;53.302;-6.362;2023-07-16T03:47:13;3.45;;;1.10;;
37787;SDS011;23627;53.302;-6.362;2023-07-16T03:49:38;4.07;;;1.08;;
37787;SDS011;23627;53.302;-6.362;2023-07-16T03:52:05;2.92;;;1.10;;
37787;SDS011;23627;53.302;-6.362;2023-07-16T03:54:31;3.85;;;1.00;;
37787;SDS011;23627;53.302;-6.362;2023-07-16T03:56:56;4.75;;;0.98;;
37787;SDS011;23627;53.302;-6.362;2023-07-16T03:59:22;2.70;;;1.00;;
37787;SDS011;23627;53.302;-6.362;2023-07-16T04:01:48;4.28;;;1.40;;
37787;SDS011;23627;53.302;-6.362;2023-07-16T04:04:14;3.85;;;1.30;;
37787;SDS011;23627;53.302;-6.362;2023-07-16T04:06:39;3.40;;;0.93;;
37787;SDS011;23627;53.302;-6.362;2023-07-16T04:09:05;3.80;;;0.98;;
37787;SDS011;23627;53.302;-6.362;2023-07-16T04:11:31;2.85;;;1.05;;
37787;SDS011;23627;53.302;-6.362;2023-07-16T04:13:56;2.03;;;0.90;;
37787;SDS011;23627;53.302;-6.362;2023-07-16T04:16:22;2.53;;;0.93;;
37787;SDS011;23627;53.302;-6.362;2023-07-16T04:18:48;4.50;;;1.02;;
37787;SDS011;23627;53.302;-6.362;2023-07-16T04:21:14;3.85;;;1.15;;
37787;SDS011;23627;53.302;-6.362;2023-07-16T04:23:39;2.08;;;0.82;;
37787;SDS011;23627;53.302;-6.362;2023-07-16T04:26:05;3.55;;;0.90;;
37787;SDS011;23627;53.302;-6.362;2023-07-16T04:28:31;2.42;;;0.65;;
37787;SDS011;23627;53.302;-6.362;2023-07-16T04:30:57;2.90;;;0.90;;
37787;SDS011;23627;53.302;-6.362;2023-07-16T04:33:22;3.40;;;1.05;;
37787;SDS011;23627;53.302;-6.362;2023-07-16T04:35:48;3.85;;;1.08;;
37787;SDS011;23627;53.302;-6.362;2023-07-16T04:38:14;5.13;;;1.05;;
37787;SDS011;23627;53.302;-6.362;2023-07-16T04:40:41;3.63;;;0.93;;
37787;SDS011;23627;53.302;-6.362;2023-07-16T04:43:08;2.50;;;1.00;;
37787;SDS011;23627;53.302;-6.362;2023-07-16T04:45:34;2.85;;;0.80;;
37787;SDS011;23627;53.302;-6.362;2023-07-16T04:48:00;2.78;;;0.80;;
37787;SDS011;23627;53.302;-6.362;2023-07-16T04:50:26;5.65;;;1.05;;
37787;SDS011;23627;53.302;-6.362;2023-07-16T04:52:52;2.55;;;0.80;;
37787;SDS011;23627;53.302;-6.362;2023-07-16T04:55:17;3.38;;;0.90;;
37787;SDS011;23627;53.302;-6.362;2023-07-16T04:57:43;3.17;;;0.90;;
37787;SDS011;23627;53.302;-6.362;2023-07-16T05:00:09;1.98;;;0.68;;
37787;SDS011;23627;53.302;-6.362;2023-07-16T05:02:35;2.85;;;1.00;;
37787;SDS011;23627;53.302;-6.362;2023-07-16T05:05:01;3.55;;;0.80;;
37787;SDS011;23627;53.302;-6.362;2023-07-16T05:07:26;4.20;;;1.00;;
37787;SDS011;23627;53.302;-6.362;2023-07-16T05:09:52;4.38;;;1.10;;
37787;SDS011;23627;53.302;-6.362;2023-07-16T05:12:18;3.80;;;0.75;;
37787;SDS011;23627;53.302;-6.362;2023-07-16T05:14:45;2.25;;;0.90;;
37787;SDS011;23627;53.302;-6.362;2023-07-16T05:17:12;2.80;;;0.90;;
37787;SDS011;23627;53.302;-6.362;2023-07-16T05:19:38;2.40;;;0.80;;
37787;SDS011;23627;53.302;-6.362;2023-07-16T05:22:05;4.60;;;1.02;;
37787;SDS011;23627;53.302;-6.362;2023-07-16T05:24:31;4.82;;;1.17;;
37787;SDS011;23627;53.302;-6.362;2023-07-16T05:26:57;3.75;;;0.82;;
37787;SDS011;23627;53.302;-6.362;2023-07-16T05:29:23;2.55;;;0.95;;
37787;SDS011;23627;53.302;-6.362;2023-07-16T05:31:49;2.45;;;0.80;;
37787;SDS011;23627;53.302;-6.362;2023-07-16T05:34:15;3.97;;;0.90;;
37787;SDS011;23627;53.302;-6.362;2023-07-16T05:36:41;5.63;;;0.90;;
37787;SDS011;23627;53.302;-6.362;2023-07-16T05:39:09;3.15;;;0.90;;
37787;SDS011;23627;53.302;-6.362;2023-07-16T05:41:37;2.95;;;0.80;;
37787;SDS011;23627;53.302;-6.362;2023-07-16T05:44:06;3.20;;;0.80;;
37787;SDS011;23627;53.302;-6.362;2023-07-16T05:46:32;3.80;;;0.98;;
37787;SDS011;23627;53.302;-6.362;2023-07-16T05:48:58;2.63;;;0.68;;
37787;SDS011;23627;53.302;-6.362;2023-07-16T05:51:24;4.10;;;0.90;;
37787;SDS011;23627;53.302;-6.362;2023-07-16T05:53:50;2.10;;;0.80;;
37787;SDS011;23627;53.302;-6.362;2023-07-16T05:56:16;2.63;;;0.93;;
37787;SDS011;23627;53.302;-6.362;2023-07-16T05:58:41;3.95;;;1.00;;
37787;SDS011;23627;53.302;-6.362;2023-07-16T06:01:08;2.60;;;0.80;;
37787;SDS011;23627;53.302;-6.362;2023-07-16T06:03:34;3.30;;;0.77;;
37787;SDS011;23627;53.302;-6.362;2023-07-16T06:05:59;3.80;;;1.15;;
37787;SDS011;23627;53.302;-6.362;2023-07-16T06:08:25;2.60;;;0.82;;
37787;SDS011;23627;53.302;-6.362;2023-07-16T06:10:51;3.30;;;0.90;;
37787;SDS011;23627;53.302;-6.362;2023-07-16T06:13:17;4.93;;;1.08;;
37787;SDS011;23627;53.302;-6.362;2023-07-16T06:15:45;4.57;;;1.33;;
37787;SDS011;23627;53.302;-6.362;2023-07-16T06:18:19;8.32;;;1.13;;
37787;SDS011;23627;53.302;-6.362;2023-07-16T06:20:47;4.03;;;1.30;;
37787;SDS011;23627;53.302;-6.362;2023-07-16T06:23:14;5.63;;;0.98;;
37787;SDS011;23627;53.302;-6.362;2023-07-16T06:25:42;3.65;;;0.95;;
37787;SDS011;23627;53.302;-6.362;2023-07-16T06:28:09;3.13;;;1.13;;
37787;SDS011;23627;53.302;-6.362;2023-07-16T06:30:36;1.67;;;0.75;;
37787;SDS011;23627;53.302;-6.362;2023-07-16T06:33:02;2.95;;;0.80;;
37787;SDS011;23627;53.302;-6.362;2023-07-16T06:35:28;5.78;;;1.35;;
37787;SDS011;23627;53.302;-6.362;2023-07-16T06:37:53;3.22;;;1.10;;
37787;SDS011;23627;53.302;-6.362;2023-07-16T06:40:19;2.50;;;1.35;;
37787;SDS011;23627;53.302;-6.362;2023-07-16T06:42:45;3.35;;;0.82;;
37787;SDS011;23627;53.302;-6.362;2023-07-16T06:45:11;3.08;;;0.90;;
37787;SDS011;23627;53.302;-6.362;2023-07-16T06:47:36;3.17;;;0.98;;
37787;SDS011;23627;53.302;-6.362;2023-07-16T06:50:02;3.10;;;0.80;;
37787;SDS011;23627;53.302;-6.362;2023-07-16T06:52:28;4.72;;;0.93;;
37787;SDS011;23627;53.302;-6.362;2023-07-16T06:54:56;3.05;;;0.90;;
37787;SDS011;23627;53.302;-6.362;2023-07-16T06:57:22;2.90;;;1.00;;
37787;SDS011;23627;53.302;-6.362;2023-07-16T06:59:48;2.85;;;0.80;;
37787;SDS011;23627;53.302;-6.362;2023-07-16T07:02:15;4.35;;;1.20;;
37787;SDS011;23627;53.302;-6.362;2023-07-16T07:04:42;2.80;;;0.82;;
37787;SDS011;23627;53.302;-6.362;2023-07-16T07:07:08;2.60;;;0.90;;
37787;SDS011;23627;53.302;-6.362;2023-07-16T07:09:33;3.90;;;0.90;;
37787;SDS011;23627;53.302;-6.362;2023-07-16T07:11:59;3.90;;;0.90;;
37787;SDS011;23627;53.302;-6.362;2023-07-16T07:14:25;3.67;;;1.00;;
37787;SDS011;23627;53.302;-6.362;2023-07-16T07:16:51;4.07;;;1.00;;
37787;SDS011;23627;53.302;-6.362;2023-07-16T07:19:17;3.58;;;0.80;;
37787;SDS011;23627;53.302;-6.362;2023-07-16T07:21:43;4.00;;;1.00;;
37787;SDS011;23627;53.302;-6.362;2023-07-16T07:24:08;4.22;;;1.10;;
37787;SDS011;23627;53.302;-6.362;2023-07-16T07:26:34;6.30;;;1.23;;
37787;SDS011;23627;53.302;-6.362;2023-07-16T07:29:00;3.40;;;1.05;;
37787;SDS011;23627;53.302;-6.362;2023-07-16T07:31:26;3.83;;;0.90;;
37787;SDS011;23627;53.302;-6.362;2023-07-16T07:33:52;3.67;;;1.02;;
37787;SDS011;23627;53.302;-6.362;2023-07-16T07:36:18;4.75;;;1.05;;
37787;SDS011;23627;53.302;-6.362;2023-07-16T07:38:44;5.70;;;1.15;;
37787;SDS011;23627;53.302;-6.362;2023-07-16T07:41:10;6.13;;;1.15;;
37787;SDS011;23627;53.302;-6.362;2023-07-16T07:43:36;3.60;;;1.00;;
37787;SDS011;23627;53.302;-6.362;2023-07-16T07:46:02;5.35;;;1.15;;
37787;SDS011;23627;53.302;-6.362;2023-07-16T07:48:27;3.55;;;1.10;;
37787;SDS011;23627;53.302;-6.362;2023-07-16T07:50:53;3.60;;;0.90;;
37787;SDS011;23627;53.302;-6.362;2023-07-16T07:53:19;5.28;;;1.27;;
37787;SDS011;23627;53.302;-6.362;2023-07-16T07:55:51;5.90;;;1.10;;
37787;SDS011;23627;53.302;-6.362;2023-07-16T07:58:16;5.13;;;1.15;;
37787;SDS011;23627;53.302;-6.362;2023-07-16T08:00:42;5.55;;;1.35;;
37787;SDS011;23627;53.302;-6.362;2023-07-16T08:03:08;4.10;;;1.20;;
37787;SDS011;23627;53.302;-6.362;2023-07-16T08:05:39;5.82;;;1.40;;
37787;SDS011;23627;53.302;-6.362;2023-07-16T08:08:05;4.80;;;1.50;;
37787;SDS011;23627;53.302;-6.362;2023-07-16T08:10:31;6.78;;;1.30;;
37787;SDS011;23627;53.302;-6.362;2023-07-16T08:12:59;5.60;;;1.30;;
37787;SDS011;23627;53.302;-6.362;2023-07-16T08:15:25;6.07;;;1.50;;
37787;SDS011;23627;53.302;-6.362;2023-07-16T08:17:51;6.38;;;1.70;;
37787;SDS011;23627;53.302;-6.362;2023-07-16T08:20:17;8.15;;;1.70;;
37787;SDS011;23627;53.302;-6.362;2023-07-16T08:22:42;6.25;;;1.40;;
37787;SDS011;23627;53.302;-6.362;2023-07-16T08:25:08;3.63;;;1.15;;
37787;SDS011;23627;53.302;-6.362;2023-07-16T08:27:34;10.23;;;1.63;;
37787;SDS011;23627;53.302;-6.362;2023-07-16T08:30:00;5.22;;;1.17;;
37787;SDS011;23627;53.302;-6.362;2023-07-16T08:32:25;5.75;;;1.33;;
37787;SDS011;23627;53.302;-6.362;2023-07-16T08:34:57;5.28;;;1.48;;
37787;SDS011;23627;53.302;-6.362;2023-07-16T08:37:24;4.47;;;1.10;;
37787;SDS011;23627;53.302;-6.362;2023-07-16T08:39:53;3.65;;;1.33;;
37787;SDS011;23627;53.302;-6.362;2023-07-16T08:42:18;5.88;;;1.20;;
37787;SDS011;23627;53.302;-6.362;2023-07-16T08:44:48;4.93;;;1.17;;
37787;SDS011;23627;53.302;-6.362;2023-07-16T08:47:17;3.40;;;0.90;;
37787;SDS011;23627;53.302;-6.362;2023-07-16T08:50:01;4.88;;;1.15;;
37787;SDS011;23627;53.302;-6.362;2023-07-16T08:52:27;6.07;;;1.38;;
37787;SDS011;23627;53.302;-6.362;2023-07-16T08:54:54;4.88;;;1.23;;
37787;SDS011;23627;53.302;-6.362;2023-07-16T08:57:23;4.38;;;1.42;;
37787;SDS011;23627;53.302;-6.362;2023-07-16T08:59:49;4.90;;;1.00;;
37787;SDS011;23627;53.302;-6.362;2023-07-16T09:02:19;4.53;;;1.42;;
37787;SDS011;23627;53.302;-6.362;2023-07-16T09:04:49;5.78;;;1.63;;
37787;SDS011;23627;53.302;-6.362;2023-07-16T09:07:21;3.40;;;1.10;;
37787;SDS011;23627;53.302;-6.362;2023-07-16T09:09:56;3.80;;;1.10;;
37787;SDS011;23627;53.302;-6.362;2023-07-16T09:12:25;7.38;;;1.65;;
37787;SDS011;23627;53.302;-6.362;2023-07-16T09:14:51;3.97;;;1.10;;
37787;SDS011;23627;53.302;-6.362;2023-07-16T09:17:23;4.88;;;1.20;;
37787;SDS011;23627;53.302;-6.362;2023-07-16T09:19:52;5.57;;;1.30;;
37787;SDS011;23627;53.302;-6.362;2023-07-16T09:22:18;4.38;;;1.38;;
37787;SDS011;23627;53.302;-6.362;2023-07-16T09:24:45;5.10;;;1.30;;
37787;SDS011;23627;53.302;-6.362;2023-07-16T09:27:12;3.53;;;0.90;;
37787;SDS011;23627;53.302;-6.362;2023-07-16T09:29:38;3.90;;;1.23;;
37787;SDS011;23627;53.302;-6.362;2023-07-16T09:32:04;2.70;;;1.20;;
37787;SDS011;23627;53.302;-6.362;2023-07-16T09:34:30;3.80;;;1.10;;
37787;SDS011;23627;53.302;-6.362;2023-07-16T09:36:57;4.07;;;1.25;;
37787;SDS011;23627;53.302;-6.362;2023-07-16T09:39:23;3.13;;;1.33;;
37787;SDS011;23627;53.302;-6.362;2023-07-16T09:41:51;4.28;;;1.50;;
37787;SDS011;23627;53.302;-6.362;2023-07-16T09:44:17;4.57;;;1.70;;
37787;SDS011;23627;53.302;-6.362;2023-07-16T09:46:44;5.35;;;1.20;;
37787;SDS011;23627;53.302;-6.362;2023-07-16T09:49:11;4.70;;;1.20;;
37787;SDS011;23627;53.302;-6.362;2023-07-16T09:51:39;4.60;;;1.27;;
37787;SDS011;23627;53.302;-6.362;2023-07-16T09:54:05;4.75;;;1.30;;
37787;SDS011;23627;53.302;-6.362;2023-07-16T09:56:39;5.00;;;1.30;;
37787;SDS011;23627;53.302;-6.362;2023-07-16T09:59:11;6.05;;;1.48;;
37787;SDS011;23627;53.302;-6.362;2023-07-16T10:01:43;4.65;;;1.45;;
37787;SDS011;23627;53.302;-6.362;2023-07-16T10:04:12;4.53;;;1.30;;
37787;SDS011;23627;53.302;-6.362;2023-07-16T10:09:52;4.32;;;1.20;;
37787;SDS011;23627;53.302;-6.362;2023-07-16T10:12:21;4.97;;;1.35;;
37787;SDS011;23627;53.302;-6.362;2023-07-16T10:14:48;8.60;;;1.60;;
37787;SDS011;23627;53.302;-6.362;2023-07-16T10:17:16;4.80;;;1.35;;
37787;SDS011;23627;53.302;-6.362;2023-07-16T10:19:49;3.80;;;1.13;;
37787;SDS011;23627;53.302;-6.362;2023-07-16T10:22:17;4.95;;;1.25;;
37787;SDS011;23627;53.302;-6.362;2023-07-16T10:24:44;3.30;;;1.10;;
37787;SDS011;23627;53.302;-6.362;2023-07-16T10:27:25;3.65;;;1.05;;
37787;SDS011;23627;53.302;-6.362;2023-07-16T10:29:55;5.15;;;1.10;;
37787;SDS011;23627;53.302;-6.362;2023-07-16T10:32:21;4.88;;;1.05;;
37787;SDS011;23627;53.302;-6.362;2023-07-16T10:34:47;2.70;;;1.33;;
37787;SDS011;23627;53.302;-6.362;2023-07-16T10:37:13;4.07;;;1.23;;
37787;SDS011;23627;53.302;-6.362;2023-07-16T10:39:48;3.65;;;1.08;;
37787;SDS011;23627;53.302;-6.362;2023-07-16T10:42:15;4.07;;;1.17;;
37787;SDS011;23627;53.302;-6.362;2023-07-16T10:44:42;6.88;;;1.83;;
37787;SDS011;23627;53.302;-6.362;2023-07-16T10:47:08;3.63;;;1.08;;
37787;SDS011;23627;53.302;-6.362;2023-07-16T10:49:44;2.50;;;1.00;;
37787;SDS011;23627;53.302;-6.362;2023-07-16T10:52:10;3.35;;;1.00;;
37787;SDS011;23627;53.302;-6.362;2023-07-16T10:54:35;3.85;;;1.10;;
37787;SDS011;23627;53.302;-6.362;2023-07-16T10:57:03;3.78;;;1.13;;
37787;SDS011;23627;53.302;-6.362;2023-07-16T10:59:29;3.45;;;1.10;;
37787;SDS011;23627;53.302;-6.362;2023-07-16T11:01:55;4.07;;;1.40;;
37787;SDS011;23627;53.302;-6.362;2023-07-16T11:04:21;2.78;;;1.10;;
37787;SDS011;23627;53.302;-6.362;2023-07-16T11:06:46;3.22;;;1.02;;
37787;SDS011;23627;53.302;-6.362;2023-07-16T11:09:15;4.35;;;1.00;;
37787;SDS011;23627;53.302;-6.362;2023-07-16T11:11:41;5.22;;;1.20;;
37787;SDS011;23627;53.302;-6.362;2023-07-16T11:14:07;2.42;;;1.00;;
37787;SDS011;23627;53.302;-6.362;2023-07-16T11:16:34;3.42;;;1.20;;
37787;SDS011;23627;53.302;-6.362;2023-07-16T11:19:06;3.35;;;0.88;;
37787;SDS011;23627;53.302;-6.362;2023-07-16T11:21:36;4.05;;;1.17;;
37787;SDS011;23627;53.302;-6.362;2023-07-16T11:24:21;3.40;;;1.05;;
37787;SDS011;23627;53.302;-6.362;2023-07-16T11:26:51;4.93;;;1.05;;
37787;SDS011;23627;53.302;-6.362;2023-07-16T11:29:17;4.60;;;1.10;;
37787;SDS011;23627;53.302;-6.362;2023-07-16T11:31:42;4.30;;;1.05;;
37787;SDS011;23627;53.302;-6.362;2023-07-16T11:34:12;4.43;;;1.05;;
37787;SDS011;23627;53.302;-6.362;2023-07-16T11:36:38;4.28;;;1.20;;
37787;SDS011;23627;53.302;-6.362;2023-07-16T11:39:04;2.40;;;0.88;;
37787;SDS011;23627;53.302;-6.362;2023-07-16T11:41:30;4.70;;;0.90;;
37787;SDS011;23627;53.302;-6.362;2023-07-16T11:44:02;4.57;;;1.20;;
37787;SDS011;23627;53.302;-6.362;2023-07-16T11:46:31;4.73;;;1.00;;
37787;SDS011;23627;53.302;-6.362;2023-07-16T11:48:58;4.45;;;1.17;;
37787;SDS011;23627;53.302;-6.362;2023-07-16T11:51:24;4.22;;;1.10;;
37787;SDS011;23627;53.302;-6.362;2023-07-16T11:53:50;4.38;;;1.10;;
37787;SDS011;23627;53.302;-6.362;2023-07-16T11:56:16;4.40;;;1.17;;
37787;SDS011;23627;53.302;-6.362;2023-07-16T11:58:41;4.75;;;1.20;;
37787;SDS011;23627;53.302;-6.362;2023-07-16T12:01:07;3.85;;;1.30;;
37787;SDS011;23627;53.302;-6.362;2023-07-16T12:03:33;3.50;;;0.88;;
37787;SDS011;23627;53.302;-6.362;2023-07-16T12:05:59;4.68;;;1.35;;
37787;SDS011;23627;53.302;-6.362;2023-07-16T12:08:25;3.90;;;1.05;;
37787;SDS011;23627;53.302;-6.362;2023-07-16T12:10:51;3.13;;;0.93;;
37787;SDS011;23627;53.302;-6.362;2023-07-16T12:13:17;4.43;;;1.10;;
37787;SDS011;23627;53.302;-6.362;2023-07-16T12:15:42;3.28;;;1.10;;
37787;SDS011;23627;53.302;-6.362;2023-07-16T12:18:08;3.28;;;0.90;;
37787;SDS011;23627;53.302;-6.362;2023-07-16T12:20:34;4.07;;;1.02;;
37787;SDS011;23627;53.302;-6.362;2023-07-16T12:23:01;2.25;;;1.00;;
37787;SDS011;23627;53.302;-6.362;2023-07-16T12:25:28;4.82;;;0.93;;
37787;SDS011;23627;53.302;-6.362;2023-07-16T12:27:54;2.33;;;0.90;;
37787;SDS011;23627;53.302;-6.362;2023-07-16T12:30:22;2.42;;;0.93;;
37787;SDS011;23627;53.302;-6.362;2023-07-16T12:32:49;2.65;;;1.20;;
37787;SDS011;23627;53.302;-6.362;2023-07-16T12:35:15;3.50;;;0.90;;
37787;SDS011;23627;53.302;-6.362;2023-07-16T12:37:40;4.43;;;1.10;;
37787;SDS011;23627;53.302;-6.362;2023-07-16T12:40:06;3.60;;;1.30;;
37787;SDS011;23627;53.302;-6.362;2023-07-16T12:42:32;2.85;;;0.90;;
37787;SDS011;23627;53.302;-6.362;2023-07-16T12:44:58;2.03;;;0.82;;
37787;SDS011;23627;53.302;-6.362;2023-07-16T12:47:24;3.33;;;0.93;;
37787;SDS011;23627;53.302;-6.362;2023-07-16T12:49:50;2.53;;;0.77;;
37787;SDS011;23627;53.302;-6.362;2023-07-16T12:52:15;2.17;;;0.90;;
37787;SDS011;23627;53.302;-6.362;2023-07-16T12:54:41;2.20;;;0.80;;
37787;SDS011;23627;53.302;-6.362;2023-07-16T12:57:07;1.83;;;0.88;;
37787;SDS011;23627;53.302;-6.362;2023-07-16T12:59:33;2.03;;;0.73;;
37787;SDS011;23627;53.302;-6.362;2023-07-16T13:01:58;3.80;;;1.02;;
37787;SDS011;23627;53.302;-6.362;2023-07-16T13:04:24;3.58;;;0.90;;
37787;SDS011;23627;53.302;-6.362;2023-07-16T13:06:50;3.15;;;0.90;;
37787;SDS011;23627;53.302;-6.362;2023-07-16T13:09:15;2.08;;;0.80;;
37787;SDS011;23627;53.302;-6.362;2023-07-16T13:11:42;1.15;;;0.77;;
37787;SDS011;23627;53.302;-6.362;2023-07-16T13:14:08;1.42;;;0.80;;
37787;SDS011;23627;53.302;-6.362;2023-07-16T13:16:35;1.83;;;0.93;;
37787;SDS011;23627;53.302;-6.362;2023-07-16T13:19:01;2.95;;;0.98;;
37787;SDS011;23627;53.302;-6.362;2023-07-16T13:21:27;3.25;;;0.90;;
37787;SDS011;23627;53.302;-6.362;2023-07-16T13:23:52;1.80;;;1.00;;
37787;SDS011;23627;53.302;-6.362;2023-07-16T13:26:18;1.65;;;0.98;;
37787;SDS011;23627;53.302;-6.362;2023-07-16T13:28:44;1.75;;;0.70;;
37787;SDS011;23627;53.302;-6.362;2023-07-16T13:31:10;1.67;;;0.82;;
37787;SDS011;23627;53.302;-6.362;2023-07-16T13:33:35;2.03;;;0.80;;
37787;SDS011;23627;53.302;-6.362;2023-07-16T13:36:01;1.67;;;0.98;;
37787;SDS011;23627;53.302;-6.362;2023-07-16T13:38:29;2.85;;;0.85;;
37787;SDS011;23627;53.302;-6.362;2023-07-16T13:40:56;1.27;;;0.80;;
37787;SDS011;23627;53.302;-6.362;2023-07-16T13:43:21;3.00;;;0.82;;
37787;SDS011;23627;53.302;-6.362;2023-07-16T13:45:47;2.80;;;1.00;;
37787;SDS011;23627;53.302;-6.362;2023-07-16T13:48:13;1.75;;;1.00;;
37787;SDS011;23627;53.302;-6.362;2023-07-16T13:50:39;2.58;;;1.00;;
37787;SDS011;23627;53.302;-6.362;2023-07-16T13:53:04;2.47;;;1.17;;
37787;SDS011;23627;53.302;-6.362;2023-07-16T13:55:31;1.75;;;1.02;;
37787;SDS011;23627;53.302;-6.362;2023-07-16T13:57:57;3.33;;;1.27;;
37787;SDS011;23627;53.302;-6.362;2023-07-16T14:00:22;1.98;;;1.10;;
37787;SDS011;23627;53.302;-6.362;2023-07-16T14:02:48;2.33;;;1.27;;
37787;SDS011;23627;53.302;-6.362;2023-07-16T14:05:14;2.15;;;1.20;;
37787;SDS011;23627;53.302;-6.362;2023-07-16T14:07:40;4.18;;;1.30;;
37787;SDS011;23627;53.302;-6.362;2023-07-16T14:10:06;3.22;;;1.50;;
37787;SDS011;23627;53.302;-6.362;2023-07-16T14:12:32;2.50;;;1.05;;
37787;SDS011;23627;53.302;-6.362;2023-07-16T14:14:59;2.38;;;1.20;;
37787;SDS011;23627;53.302;-6.362;2023-07-16T14:17:25;2.30;;;1.30;;
37787;SDS011;23627;53.302;-6.362;2023-07-16T14:19:51;3.75;;;1.20;;
37787;SDS011;23627;53.302;-6.362;2023-07-16T14:22:17;2.05;;;1.40;;
37787;SDS011;23627;53.302;-6.362;2023-07-16T14:24:43;2.33;;;1.20;;
37787;SDS011;23627;53.302;-6.362;2023-07-16T14:27:09;3.80;;;1.20;;
37787;SDS011;23627;53.302;-6.362;2023-07-16T14:29:36;2.47;;;1.00;;
37787;SDS011;23627;53.302;-6.362;2023-07-16T14:32:02;2.78;;;1.25;;
37787;SDS011;23627;53.302;-6.362;2023-07-16T14:34:28;2.30;;;1.00;;
37787;SDS011;23627;53.302;-6.362;2023-07-16T14:36:54;2.65;;;1.10;;
37787;SDS011;23627;53.302;-6.362;2023-07-16T14:39:19;1.90;;;1.08;;
37787;SDS011;23627;53.302;-6.362;2023-07-16T14:41:46;2.75;;;1.30;;
37787;SDS011;23627;53.302;-6.362;2023-07-16T14:44:13;2.60;;;1.30;;